sensor_id;sensor_type;location;lat;lon;timestamp;temperature;humidity
54158;DHT22;40065;49.894;10.358;2024-01-30T00:03:12;0.40;99.90
54158;DHT22;40065;49.894;10.358;2024-01-30T00:08:14;0.30;99.90
54158;DHT22;40065;49.894;10.358;2024-01-30T00:13:16;0.30;99.90
54158;DHT22;40065;49.894;10.358;2024-01-30T00:18:20;0.20;99.90
54158;DHT22;40065;49.894;10.358;2024-01-30T00:23:23;0.30;99.90
54158;DHT22;40065;49.894;10.358;2024-01-30T00:28:24;0.30;99.90
54158;DHT22;40065;49.894;10.358;2024-01-30T00:33:26;0.10;99.90
54158;DHT22;40065;49.894;10.358;2024-01-30T00:38:28;0.10;99.90
54158;DHT22;40065;49.894;10.358;2024-01-30T00:43:30;0.10;99.90
54158;DHT22;40065;49.894;10.358;2024-01-30T00:48:32;0.10;99.90
54158;DHT22;40065;49.894;10.358;2024-01-30T00:53:34;0.00;99.90
54158;DHT22;40065;49.894;10.358;2024-01-30T00:58:36;0.00;99.90
54158;DHT22;40065;49.894;10.358;2024-01-30T01:03:38;0.10;99.90
54158;DHT22;40065;49.894;10.358;2024-01-30T01:08:42;-0.10;99.90
54158;DHT22;40065;49.894;10.358;2024-01-30T01:13:44;-0.20;99.90
54158;DHT22;40065;49.894;10.358;2024-01-30T01:18:46;-0.20;99.90
54158;DHT22;40065;49.894;10.358;2024-01-30T01:23:48;-0.20;99.90
54158;DHT22;40065;49.894;10.358;2024-01-30T01:28:50;-0.20;99.90
54158;DHT22;40065;49.894;10.358;2024-01-30T01:33:51;-0.10;99.90
54158;DHT22;40065;49.894;10.358;2024-01-30T01:38:54;-0.20;99.90
54158;DHT22;40065;49.894;10.358;2024-01-30T01:43:55;-0.30;99.90
54158;DHT22;40065;49.894;10.358;2024-01-30T01:48:57;-0.40;99.90
54158;DHT22;40065;49.894;10.358;2024-01-30T01:54:04;-0.50;99.90
54158;DHT22;40065;49.894;10.358;2024-01-30T01:59:07;-0.50;99.90
54158;DHT22;40065;49.894;10.358;2024-01-30T02:04:10;-0.50;99.90
54158;DHT22;40065;49.894;10.358;2024-01-30T02:09:12;-0.50;99.90
54158;DHT22;40065;49.894;10.358;2024-01-30T02:14:13;-0.40;99.90
54158;DHT22;40065;49.894;10.358;2024-01-30T02:19:15;-0.50;99.90
54158;DHT22;40065;49.894;10.358;2024-01-30T02:24:17;-0.40;99.90
54158;DHT22;40065;49.894;10.358;2024-01-30T02:29:19;-0.30;99.90
54158;DHT22;40065;49.894;10.358;2024-01-30T02:34:21;-0.20;99.90
54158;DHT22;40065;49.894;10.358;2024-01-30T02:39:23;-0.40;99.90
54158;DHT22;40065;49.894;10.358;2024-01-30T02:44:25;-0.60;99.90
54158;DHT22;40065;49.894;10.358;2024-01-30T02:49:27;-0.50;99.90
54158;DHT22;40065;49.894;10.358;2024-01-30T02:54:29;-0.50;99.90
54158;DHT22;40065;49.894;10.358;2024-01-30T02:59:32;-0.50;99.90
54158;DHT22;40065;49.894;10.358;2024-01-30T03:04:37;-0.50;99.90
54158;DHT22;40065;49.894;10.358;2024-01-30T03:09:41;-0.50;99.90
54158;DHT22;40065;49.894;10.358;2024-01-30T03:14:44;-0.40;99.90
54158;DHT22;40065;49.894;10.358;2024-01-30T03:19:46;-0.40;99.90
54158;DHT22;40065;49.894;10.358;2024-01-30T03:24:47;-0.40;99.90
54158;DHT22;40065;49.894;10.358;2024-01-30T03:29:49;-0.50;99.90
54158;DHT22;40065;49.894;10.358;2024-01-30T03:34:51;-0.50;99.90
54158;DHT22;40065;49.894;10.358;2024-01-30T03:39:53;-0.20;99.90
54158;DHT22;40065;49.894;10.358;2024-01-30T03:44:56;-0.20;99.90
54158;DHT22;40065;49.894;10.358;2024-01-30T03:49:58;-0.50;99.90
54158;DHT22;40065;49.894;10.358;2024-01-30T03:55:00;-0.50;99.90
54158;DHT22;40065;49.894;10.358;2024-01-30T04:00:02;-0.60;99.90
54158;DHT22;40065;49.894;10.358;2024-01-30T04:05:12;-0.70;99.90
54158;DHT22;40065;49.894;10.358;2024-01-30T04:10:14;-0.70;99.90
54158;DHT22;40065;49.894;10.358;2024-01-30T04:15:16;-0.70;99.90
54158;DHT22;40065;49.894;10.358;2024-01-30T04:20:18;-0.70;99.90
54158;DHT22;40065;49.894;10.358;2024-01-30T04:25:20;-0.60;99.90
54158;DHT22;40065;49.894;10.358;2024-01-30T04:30:22;-0.60;99.90
54158;DHT22;40065;49.894;10.358;2024-01-30T04:35:24;-0.50;99.90
54158;DHT22;40065;49.894;10.358;2024-01-30T04:40:26;-0.40;99.90
54158;DHT22;40065;49.894;10.358;2024-01-30T04:45:28;-0.50;99.90
54158;DHT22;40065;49.894;10.358;2024-01-30T04:50:30;-0.60;99.90
54158;DHT22;40065;49.894;10.358;2024-01-30T04:55:32;-0.50;99.90
54158;DHT22;40065;49.894;10.358;2024-01-30T05:00:34;-0.40;99.90
54158;DHT22;40065;49.894;10.358;2024-01-30T05:05:35;-0.50;99.90
54158;DHT22;40065;49.894;10.358;2024-01-30T05:10:37;-0.70;99.90
54158;DHT22;40065;49.894;10.358;2024-01-30T05:15:39;-0.70;99.90
54158;DHT22;40065;49.894;10.358;2024-01-30T05:20:41;-0.70;99.90
54158;DHT22;40065;49.894;10.358;2024-01-30T05:25:43;-0.70;99.90
54158;DHT22;40065;49.894;10.358;2024-01-30T05:30:45;-0.60;99.90
54158;DHT22;40065;49.894;10.358;2024-01-30T05:35:47;-0.50;99.90
54158;DHT22;40065;49.894;10.358;2024-01-30T05:40:50;-0.50;99.90
54158;DHT22;40065;49.894;10.358;2024-01-30T05:45:52;-0.30;99.90
54158;DHT22;40065;49.894;10.358;2024-01-30T05:50:54;-0.40;99.90
54158;DHT22;40065;49.894;10.358;2024-01-30T05:55:56;-0.50;99.90
54158;DHT22;40065;49.894;10.358;2024-01-30T06:00:58;-0.60;99.90
54158;DHT22;40065;49.894;10.358;2024-01-30T06:06:01;-0.60;99.90
54158;DHT22;40065;49.894;10.358;2024-01-30T06:11:03;-0.60;99.90
54158;DHT22;40065;49.894;10.358;2024-01-30T06:16:05;-0.70;99.90
54158;DHT22;40065;49.894;10.358;2024-01-30T06:21:10;-0.70;99.90
54158;DHT22;40065;49.894;10.358;2024-01-30T06:26:14;-0.70;99.90
54158;DHT22;40065;49.894;10.358;2024-01-30T06:31:15;-0.70;99.90
54158;DHT22;40065;49.894;10.358;2024-01-30T06:36:18;-0.70;99.90
54158;DHT22;40065;49.894;10.358;2024-01-30T06:41:20;-0.70;99.90
54158;DHT22;40065;49.894;10.358;2024-01-30T06:46:22;-0.70;99.90
54158;DHT22;40065;49.894;10.358;2024-01-30T06:51:24;-0.70;99.90
54158;DHT22;40065;49.894;10.358;2024-01-30T06:56:26;-0.60;99.90
54158;DHT22;40065;49.894;10.358;2024-01-30T07:01:31;-0.50;99.90
54158;DHT22;40065;49.894;10.358;2024-01-30T07:06:33;-0.50;99.90
54158;DHT22;40065;49.894;10.358;2024-01-30T07:11:35;-0.50;99.90
54158;DHT22;40065;49.894;10.358;2024-01-30T07:16:37;-0.40;99.90
54158;DHT22;40065;49.894;10.358;2024-01-30T07:21:39;-0.30;99.90
54158;DHT22;40065;49.894;10.358;2024-01-30T07:26:42;-0.10;99.90
54158;DHT22;40065;49.894;10.358;2024-01-30T07:31:44;0.10;99.90
54158;DHT22;40065;49.894;10.358;2024-01-30T07:36:46;0.30;99.90
54158;DHT22;40065;49.894;10.358;2024-01-30T07:41:48;0.60;99.90
54158;DHT22;40065;49.894;10.358;2024-01-30T07:46:50;0.90;99.90
54158;DHT22;40065;49.894;10.358;2024-01-30T07:51:52;1.10;99.90
54158;DHT22;40065;49.894;10.358;2024-01-30T07:56:54;1.00;99.90
54158;DHT22;40065;49.894;10.358;2024-01-30T08:01:56;1.00;99.90
54158;DHT22;40065;49.894;10.358;2024-01-30T08:06:58;0.80;99.90
54158;DHT22;40065;49.894;10.358;2024-01-30T08:12:00;0.80;99.90
54158;DHT22;40065;49.894;10.358;2024-01-30T08:17:02;0.90;99.90
54158;DHT22;40065;49.894;10.358;2024-01-30T08:22:04;1.20;99.90
54158;DHT22;40065;49.894;10.358;2024-01-30T08:27:06;1.60;99.90
54158;DHT22;40065;49.894;10.358;2024-01-30T08:32:11;1.80;99.90
54158;DHT22;40065;49.894;10.358;2024-01-30T08:37:13;2.00;99.90
54158;DHT22;40065;49.894;10.358;2024-01-30T08:42:18;2.10;99.90
54158;DHT22;40065;49.894;10.358;2024-01-30T08:47:24;2.30;99.90
54158;DHT22;40065;49.894;10.358;2024-01-30T08:52:26;2.60;99.90
54158;DHT22;40065;49.894;10.358;2024-01-30T08:57:28;2.00;99.90
54158;DHT22;40065;49.894;10.358;2024-01-30T09:02:31;2.30;99.90
54158;DHT22;40065;49.894;10.358;2024-01-30T09:07:32;2.70;99.90
54158;DHT22;40065;49.894;10.358;2024-01-30T09:12:34;3.10;99.90
54158;DHT22;40065;49.894;10.358;2024-01-30T09:17:36;3.30;99.90
54158;DHT22;40065;49.894;10.358;2024-01-30T09:22:38;4.30;99.90
54158;DHT22;40065;49.894;10.358;2024-01-30T09:27:40;5.10;99.90
54158;DHT22;40065;49.894;10.358;2024-01-30T09:32:42;5.60;99.90
54158;DHT22;40065;49.894;10.358;2024-01-30T09:37:44;6.20;99.90
54158;DHT22;40065;49.894;10.358;2024-01-30T09:42:47;6.40;99.90
54158;DHT22;40065;49.894;10.358;2024-01-30T09:47:52;6.90;99.90
54158;DHT22;40065;49.894;10.358;2024-01-30T09:52:55;7.20;99.90
54158;DHT22;40065;49.894;10.358;2024-01-30T09:57:58;6.30;99.90
54158;DHT22;40065;49.894;10.358;2024-01-30T10:03:01;6.50;99.90
54158;DHT22;40065;49.894;10.358;2024-01-30T10:08:06;7.60;99.90
54158;DHT22;40065;49.894;10.358;2024-01-30T10:13:11;7.70;99.90
54158;DHT22;40065;49.894;10.358;2024-01-30T10:18:13;7.30;99.90
54158;DHT22;40065;49.894;10.358;2024-01-30T10:23:15;7.50;99.90
54158;DHT22;40065;49.894;10.358;2024-01-30T10:28:18;7.50;99.90
54158;DHT22;40065;49.894;10.358;2024-01-30T10:33:20;6.60;99.90
54158;DHT22;40065;49.894;10.358;2024-01-30T10:38:24;7.10;99.90
54158;DHT22;40065;49.894;10.358;2024-01-30T10:43:35;6.80;99.90
54158;DHT22;40065;49.894;10.358;2024-01-30T10:48:42;7.20;99.90
54158;DHT22;40065;49.894;10.358;2024-01-30T10:53:46;7.40;99.90
54158;DHT22;40065;49.894;10.358;2024-01-30T10:58:52;7.20;99.90
54158;DHT22;40065;49.894;10.358;2024-01-30T11:03:55;7.10;99.90
54158;DHT22;40065;49.894;10.358;2024-01-30T11:08:59;6.60;99.90
54158;DHT22;40065;49.894;10.358;2024-01-30T11:14:01;6.60;99.90
54158;DHT22;40065;49.894;10.358;2024-01-30T11:19:04;6.30;99.90
54158;DHT22;40065;49.894;10.358;2024-01-30T11:24:07;6.10;99.90
54158;DHT22;40065;49.894;10.358;2024-01-30T11:29:09;8.10;99.90
54158;DHT22;40065;49.894;10.358;2024-01-30T11:34:15;7.80;99.90
54158;DHT22;40065;49.894;10.358;2024-01-30T11:39:17;7.40;99.90
54158;DHT22;40065;49.894;10.358;2024-01-30T11:44:24;8.00;99.90
54158;DHT22;40065;49.894;10.358;2024-01-30T11:49:27;7.70;99.90
54158;DHT22;40065;49.894;10.358;2024-01-30T11:54:29;8.50;99.90
54158;DHT22;40065;49.894;10.358;2024-01-30T11:59:32;9.00;99.90
54158;DHT22;40065;49.894;10.358;2024-01-30T12:04:34;8.10;99.90
54158;DHT22;40065;49.894;10.358;2024-01-30T12:09:35;8.40;99.90
54158;DHT22;40065;49.894;10.358;2024-01-30T12:14:39;8.90;99.90
54158;DHT22;40065;49.894;10.358;2024-01-30T12:19:41;9.20;99.90
54158;DHT22;40065;49.894;10.358;2024-01-30T12:24:43;8.90;99.90
54158;DHT22;40065;49.894;10.358;2024-01-30T12:29:45;8.60;99.90
54158;DHT22;40065;49.894;10.358;2024-01-30T12:34:46;8.20;99.90
54158;DHT22;40065;49.894;10.358;2024-01-30T12:40:02;9.10;99.90
54158;DHT22;40065;49.894;10.358;2024-01-30T12:45:04;9.90;99.90
54158;DHT22;40065;49.894;10.358;2024-01-30T12:50:06;10.70;99.90
54158;DHT22;40065;49.894;10.358;2024-01-30T12:55:08;10.70;99.90
54158;DHT22;40065;49.894;10.358;2024-01-30T13:00:10;10.10;99.90
54158;DHT22;40065;49.894;10.358;2024-01-30T13:05:13;9.10;99.90
54158;DHT22;40065;49.894;10.358;2024-01-30T13:10:15;9.20;99.90
54158;DHT22;40065;49.894;10.358;2024-01-30T13:15:17;9.30;99.90
54158;DHT22;40065;49.894;10.358;2024-01-30T13:20:19;9.40;99.90
54158;DHT22;40065;49.894;10.358;2024-01-30T13:25:22;9.50;99.90
54158;DHT22;40065;49.894;10.358;2024-01-30T13:30:24;9.80;99.90
54158;DHT22;40065;49.894;10.358;2024-01-30T13:35:26;9.90;99.90
54158;DHT22;40065;49.894;10.358;2024-01-30T13:40:27;9.30;99.90
54158;DHT22;40065;49.894;10.358;2024-01-30T13:45:29;8.90;99.90
54158;DHT22;40065;49.894;10.358;2024-01-30T13:50:31;8.70;99.90
54158;DHT22;40065;49.894;10.358;2024-01-30T13:55:35;8.20;99.90
54158;DHT22;40065;49.894;10.358;2024-01-30T14:00:36;8.40;99.90
54158;DHT22;40065;49.894;10.358;2024-01-30T14:05:38;8.50;99.90
54158;DHT22;40065;49.894;10.358;2024-01-30T14:10:40;8.60;99.90
54158;DHT22;40065;49.894;10.358;2024-01-30T14:15:42;8.50;99.90
54158;DHT22;40065;49.894;10.358;2024-01-30T14:20:44;8.50;99.90
54158;DHT22;40065;49.894;10.358;2024-01-30T14:25:46;8.20;99.90
54158;DHT22;40065;49.894;10.358;2024-01-30T14:30:48;7.90;99.90
54158;DHT22;40065;49.894;10.358;2024-01-30T14:35:49;7.90;99.90
54158;DHT22;40065;49.894;10.358;2024-01-30T14:40:52;7.90;99.90
54158;DHT22;40065;49.894;10.358;2024-01-30T14:45:54;7.80;99.90
54158;DHT22;40065;49.894;10.358;2024-01-30T14:50:56;7.70;99.90
54158;DHT22;40065;49.894;10.358;2024-01-30T14:55:58;7.80;99.90
54158;DHT22;40065;49.894;10.358;2024-01-30T15:01:00;7.80;99.90
54158;DHT22;40065;49.894;10.358;2024-01-30T15:06:02;7.70;99.90
54158;DHT22;40065;49.894;10.358;2024-01-30T15:11:06;7.50;99.90
54158;DHT22;40065;49.894;10.358;2024-01-30T15:16:08;7.40;99.90
54158;DHT22;40065;49.894;10.358;2024-01-30T15:21:10;7.20;99.90
54158;DHT22;40065;49.894;10.358;2024-01-30T15:26:12;7.20;99.90
54158;DHT22;40065;49.894;10.358;2024-01-30T15:31:14;7.20;99.90
54158;DHT22;40065;49.894;10.358;2024-01-30T15:36:16;7.50;99.90
54158;DHT22;40065;49.894;10.358;2024-01-30T15:41:18;7.50;99.90
54158;DHT22;40065;49.894;10.358;2024-01-30T15:46:19;7.70;99.90
54158;DHT22;40065;49.894;10.358;2024-01-30T15:51:22;8.10;99.90
54158;DHT22;40065;49.894;10.358;2024-01-30T15:56:25;8.10;99.90
54158;DHT22;40065;49.894;10.358;2024-01-30T16:01:27;7.80;99.90
54158;DHT22;40065;49.894;10.358;2024-01-30T16:06:29;7.60;99.90
54158;DHT22;40065;49.894;10.358;2024-01-30T16:11:31;7.40;99.90
54158;DHT22;40065;49.894;10.358;2024-01-30T16:16:34;7.40;99.90
54158;DHT22;40065;49.894;10.358;2024-01-30T16:21:36;7.70;99.90
54158;DHT22;40065;49.894;10.358;2024-01-30T16:26:38;8.10;99.90
54158;DHT22;40065;49.894;10.358;2024-01-30T16:31:41;8.10;99.90
54158;DHT22;40065;49.894;10.358;2024-01-30T16:36:42;7.90;99.90
54158;DHT22;40065;49.894;10.358;2024-01-30T16:41:47;7.70;99.90
54158;DHT22;40065;49.894;10.358;2024-01-30T16:46:49;7.50;99.90
54158;DHT22;40065;49.894;10.358;2024-01-30T16:51:53;7.40;99.90
54158;DHT22;40065;49.894;10.358;2024-01-30T16:56:55;7.50;99.90
54158;DHT22;40065;49.894;10.358;2024-01-30T17:01:57;7.40;99.90
54158;DHT22;40065;49.894;10.358;2024-01-30T17:06:59;7.80;99.90
54158;DHT22;40065;49.894;10.358;2024-01-30T17:12:01;8.00;99.90
54158;DHT22;40065;49.894;10.358;2024-01-30T17:17:04;8.20;99.90
54158;DHT22;40065;49.894;10.358;2024-01-30T17:22:14;8.20;99.90
54158;DHT22;40065;49.894;10.358;2024-01-30T17:27:16;8.20;99.90
54158;DHT22;40065;49.894;10.358;2024-01-30T17:32:18;8.20;99.90
54158;DHT22;40065;49.894;10.358;2024-01-30T17:37:20;8.20;99.90
54158;DHT22;40065;49.894;10.358;2024-01-30T17:42:22;8.20;99.90
54158;DHT22;40065;49.894;10.358;2024-01-30T17:47:25;8.10;99.90
54158;DHT22;40065;49.894;10.358;2024-01-30T17:52:27;8.20;99.90
54158;DHT22;40065;49.894;10.358;2024-01-30T17:57:29;8.20;99.90
54158;DHT22;40065;49.894;10.358;2024-01-30T18:02:31;8.20;99.90
54158;DHT22;40065;49.894;10.358;2024-01-30T18:07:33;8.10;99.90
54158;DHT22;40065;49.894;10.358;2024-01-30T18:12:35;8.20;99.90
54158;DHT22;40065;49.894;10.358;2024-01-30T18:17:37;8.10;99.90
54158;DHT22;40065;49.894;10.358;2024-01-30T18:22:39;8.10;99.90
54158;DHT22;40065;49.894;10.358;2024-01-30T18:27:43;8.10;99.90
54158;DHT22;40065;49.894;10.358;2024-01-30T18:32:47;8.10;99.90
54158;DHT22;40065;49.894;10.358;2024-01-30T18:37:50;8.10;99.90
54158;DHT22;40065;49.894;10.358;2024-01-30T18:42:52;8.00;99.90
54158;DHT22;40065;49.894;10.358;2024-01-30T18:47:54;7.80;99.90
54158;DHT22;40065;49.894;10.358;2024-01-30T18:52:56;7.80;99.90
54158;DHT22;40065;49.894;10.358;2024-01-30T18:57:58;7.80;99.90
54158;DHT22;40065;49.894;10.358;2024-01-30T19:03:00;7.70;99.90
54158;DHT22;40065;49.894;10.358;2024-01-30T19:08:02;7.80;99.90
54158;DHT22;40065;49.894;10.358;2024-01-30T19:13:04;7.80;99.90
54158;DHT22;40065;49.894;10.358;2024-01-30T19:18:07;7.80;99.90
54158;DHT22;40065;49.894;10.358;2024-01-30T19:23:09;7.80;99.90
54158;DHT22;40065;49.894;10.358;2024-01-30T19:28:11;7.80;99.90
54158;DHT22;40065;49.894;10.358;2024-01-30T19:33:14;7.70;99.90
54158;DHT22;40065;49.894;10.358;2024-01-30T19:38:16;7.70;99.90
54158;DHT22;40065;49.894;10.358;2024-01-30T19:43:18;7.80;99.90
54158;DHT22;40065;49.894;10.358;2024-01-30T19:48:20;7.90;99.90
54158;DHT22;40065;49.894;10.358;2024-01-30T19:53:22;7.80;99.90
54158;DHT22;40065;49.894;10.358;2024-01-30T19:58:24;7.80;99.90
54158;DHT22;40065;49.894;10.358;2024-01-30T20:03:26;7.80;99.90
54158;DHT22;40065;49.894;10.358;2024-01-30T20:08:28;7.60;99.90
54158;DHT22;40065;49.894;10.358;2024-01-30T20:13:31;7.60;99.90
54158;DHT22;40065;49.894;10.358;2024-01-30T20:18:33;7.50;99.90
54158;DHT22;40065;49.894;10.358;2024-01-30T20:23:35;7.50;99.90
54158;DHT22;40065;49.894;10.358;2024-01-30T20:28:38;7.50;99.90
54158;DHT22;40065;49.894;10.358;2024-01-30T20:33:40;7.50;99.90
54158;DHT22;40065;49.894;10.358;2024-01-30T20:38:43;7.50;99.90
54158;DHT22;40065;49.894;10.358;2024-01-30T20:43:44;7.60;99.90
54158;DHT22;40065;49.894;10.358;2024-01-30T20:48:46;7.50;99.90
54158;DHT22;40065;49.894;10.358;2024-01-30T20:53:48;7.50;99.90
54158;DHT22;40065;49.894;10.358;2024-01-30T20:58:50;7.50;99.90
54158;DHT22;40065;49.894;10.358;2024-01-30T21:03:52;7.50;99.90
54158;DHT22;40065;49.894;10.358;2024-01-30T21:08:55;7.50;99.90
54158;DHT22;40065;49.894;10.358;2024-01-30T21:13:57;7.50;99.90
54158;DHT22;40065;49.894;10.358;2024-01-30T21:19:00;7.50;99.90
54158;DHT22;40065;49.894;10.358;2024-01-30T21:24:02;7.50;99.90
54158;DHT22;40065;49.894;10.358;2024-01-30T21:29:04;7.40;99.90
54158;DHT22;40065;49.894;10.358;2024-01-30T21:34:06;7.40;99.90
54158;DHT22;40065;49.894;10.358;2024-01-30T21:39:08;7.60;99.90
54158;DHT22;40065;49.894;10.358;2024-01-30T21:44:10;7.60;99.90
54158;DHT22;40065;49.894;10.358;2024-01-30T21:49:12;7.70;99.90
54158;DHT22;40065;49.894;10.358;2024-01-30T21:54:13;7.60;99.90
54158;DHT22;40065;49.894;10.358;2024-01-30T21:59:15;7.70;99.90
54158;DHT22;40065;49.894;10.358;2024-01-30T22:04:17;7.70;99.90
54158;DHT22;40065;49.894;10.358;2024-01-30T22:09:19;7.70;99.90
54158;DHT22;40065;49.894;10.358;2024-01-30T22:14:23;7.60;99.90
54158;DHT22;40065;49.894;10.358;2024-01-30T22:19:25;7.50;99.90
54158;DHT22;40065;49.894;10.358;2024-01-30T22:24:27;7.40;99.90
54158;DHT22;40065;49.894;10.358;2024-01-30T22:29:28;7.30;99.90
54158;DHT22;40065;49.894;10.358;2024-01-30T22:34:30;7.20;99.90
54158;DHT22;40065;49.894;10.358;2024-01-30T22:39:32;7.20;99.90
54158;DHT22;40065;49.894;10.358;2024-01-30T22:44:34;7.00;99.90
54158;DHT22;40065;49.894;10.358;2024-01-30T22:49:36;6.90;99.90
54158;DHT22;40065;49.894;10.358;2024-01-30T22:54:38;6.70;99.90
54158;DHT22;40065;49.894;10.358;2024-01-30T22:59:39;6.70;99.90
54158;DHT22;40065;49.894;10.358;2024-01-30T23:04:41;6.70;99.90
54158;DHT22;40065;49.894;10.358;2024-01-30T23:09:43;6.70;99.90
54158;DHT22;40065;49.894;10.358;2024-01-30T23:14:46;6.70;99.90
54158;DHT22;40065;49.894;10.358;2024-01-30T23:19:48;6.80;99.90
54158;DHT22;40065;49.894;10.358;2024-01-30T23:24:49;6.80;99.90
54158;DHT22;40065;49.894;10.358;2024-01-30T23:29:51;6.70;99.90
54158;DHT22;40065;49.894;10.358;2024-01-30T23:34:53;6.90;99.90
54158;DHT22;40065;49.894;10.358;2024-01-30T23:39:55;7.00;99.90
54158;DHT22;40065;49.894;10.358;2024-01-30T23:44:57;7.00;99.90
54158;DHT22;40065;49.894;10.358;2024-01-30T23:49:59;7.00;99.90
54158;DHT22;40065;49.894;10.358;2024-01-30T23:55:01;7.20;99.90
